createdAt,value
2022-08-28T20:31:02.980Z,24.52
2022-08-28T20:33:33.813Z,24.34
2022-08-28T20:36:08.176Z,24.18
2022-08-28T20:38:47.415Z,24.06
2022-08-28T20:41:21.828Z,23.98
2022-08-28T20:43:56.167Z,23.93
2022-08-28T20:46:27.536Z,23.90
2022-08-28T20:48:58.609Z,23.88
2022-08-28T20:51:43.130Z,23.86
2022-08-28T20:54:16.967Z,23.84
2022-08-28T20:56:47.892Z,23.83
2022-08-28T20:59:19.781Z,23.76
2022-08-28T21:01:53.893Z,23.69
2022-08-28T21:04:25.469Z,23.65
2022-08-28T21:06:56.538Z,23.62
2022-08-28T21:09:58.155Z,23.58
2022-08-28T21:12:18.435Z,23.59
2022-08-28T21:14:53.222Z,23.53
2022-08-28T21:17:29.559Z,23.46
2022-08-28T21:20:04.304Z,23.40
2022-08-28T21:22:36.113Z,23.35
2022-08-28T21:25:08.160Z,23.35
2022-08-28T21:27:39.867Z,23.38
2022-08-28T21:30:12.564Z,23.40
2022-08-28T21:32:43.843Z,23.40
2022-08-28T21:35:16.105Z,23.36
2022-08-28T21:37:46.834Z,23.29
2022-08-28T21:40:18.109Z,23.21
2022-08-28T21:42:48.735Z,23.12
2022-08-28T21:45:19.414Z,23.06
2022-08-28T21:47:49.835Z,22.98
2022-08-28T21:50:22.108Z,22.90
2022-08-28T21:52:52.551Z,22.83
2022-08-28T21:55:23.145Z,22.76
2022-08-28T21:57:53.986Z,22.69
2022-08-28T22:00:25.550Z,22.64
2022-08-28T22:02:55.914Z,22.64
2022-08-28T22:05:28.814Z,22.65
2022-08-28T22:07:59.035Z,22.69
2022-08-28T22:10:29.782Z,22.75
2022-08-28T22:13:00.211Z,22.75
2022-08-28T22:15:31.760Z,22.71
2022-08-28T22:18:02.372Z,22.70
2022-08-28T22:20:32.663Z,22.67
2022-08-28T22:23:12.620Z,22.65
2022-08-28T22:25:44.629Z,22.62
2022-08-28T22:28:15.271Z,22.58
2022-08-28T22:30:45.783Z,22.55
2022-08-28T22:33:17.136Z,22.57
2022-08-28T22:35:47.612Z,22.61
2022-08-28T22:38:18.250Z,22.65
2022-08-28T22:40:49.377Z,22.67
2022-08-28T22:43:21.438Z,22.67
2022-08-28T22:45:52.138Z,22.66
2022-08-28T22:48:22.625Z,22.67
2022-08-28T22:50:53.149Z,22.66
2022-08-28T22:53:23.611Z,22.63
2022-08-28T22:55:56.412Z,22.63
2022-08-28T22:58:26.798Z,22.64
2022-08-28T23:00:58.668Z,22.63
2022-08-28T23:03:29.681Z,22.64
2022-08-28T23:06:00.459Z,22.65
2022-08-28T23:08:34.008Z,22.64
2022-08-28T23:11:05.261Z,22.64
2022-08-28T23:13:36.372Z,22.63
2022-08-28T23:16:08.293Z,22.62
2022-08-28T23:19:06.650Z,22.61
2022-08-28T23:21:30.003Z,22.59
2022-08-28T23:24:00.420Z,22.54
2022-08-28T23:26:31.841Z,22.51
2022-08-28T23:29:02.710Z,22.47
2022-08-28T23:31:33.257Z,22.43
2022-08-28T23:34:05.002Z,22.41
2022-08-28T23:36:36.749Z,22.36
2022-08-28T23:39:09.719Z,22.35
2022-08-28T23:41:40.369Z,22.34
2022-08-28T23:44:11.718Z,22.30
2022-08-28T23:46:42.425Z,22.28
2022-08-28T23:49:13.966Z,22.26
2022-08-28T23:51:48.412Z,22.25
2022-08-28T23:54:22.870Z,22.24
2022-08-28T23:56:53.061Z,22.24
2022-08-28T23:59:23.654Z,22.23
